Time;durP1;ratioP1;P1;durP2;ratioP2;P2;SDS_P1;SDS_P2;PMS_P1;PMS_P2;Temp;Humidity;BMP_temperature;BMP_pressure;BME280_temperature;BME280_humidity;BME280_pressure;Samples;Min_cycle;Max_cycle;Signal;HPM_P1;HPM_P2
2023/03/31 00:02:52;;;;;;;2.08;0.70;;;21.50;75.50;;;;;;6398440;27;20506;-52
2023/03/31 00:05:55;;;;;;;2.03;1.08;;;21.60;75.40;;;;;;6398764;27;20062;-53
2023/03/31 00:09:00;;;;;;;2.13;1.00;;;21.50;75.40;;;;;;6380882;27;20372;-51
2023/03/31 00:12:04;;;;;;;2.47;1.15;;;21.60;75.00;;;;;;6398832;27;20068;-53
2023/03/31 00:15:06;;;;;;;1.83;1.13;;;21.50;75.20;;;;;;6399346;27;20095;-52
2023/03/31 00:18:08;;;;;;;2.08;1.20;;;21.60;75.40;;;;;;6398865;27;20130;-52
2023/03/31 00:21:13;;;;;;;2.55;1.35;;;21.60;75.60;;;;;;6398811;27;20043;-53
2023/03/31 00:24:15;;;;;;;2.80;1.30;;;21.90;75.40;;;;;;6363881;27;20042;-50
2023/03/31 00:27:16;;;;;;;2.72;1.02;;;21.50;75.30;;;;;;6398676;27;20039;-52
2023/03/31 00:30:18;;;;;;;;;;;21.50;75.10;;;;;;6399254;27;20054;-51
2023/03/31 00:33:20;;;;;;;2.08;1.08;;;22.10;75.90;;;;;;6380456;27;19919;-49
2023/03/31 00:36:26;;;;;;;2.42;1.20;;;21.50;75.30;;;;;;6398591;27;20042;-52
2023/03/31 00:39:30;;;;;;;2.45;1.30;;;21.50;75.10;;;;;;6380676;27;20456;-52
2023/03/31 00:42:32;;;;;;;1.70;1.20;;;21.70;74.90;;;;;;6398668;27;20045;-52
2023/03/31 00:45:34;;;;;;;2.63;1.20;;;21.50;74.70;;;;;;6398436;27;20058;-52
2023/03/31 00:48:37;;;;;;;2.65;1.13;;;21.50;74.30;;;;;;6398441;27;20106;-51
2023/03/31 00:51:39;;;;;;;3.13;1.35;;;21.40;74.60;;;;;;6398838;27;20039;-52
2023/03/31 00:54:43;;;;;;;2.70;1.10;;;21.60;74.20;;;;;;6398526;27;20046;-51
2023/03/31 00:57:46;;;;;;;1.70;0.82;;;21.40;74.20;;;;;;6398022;27;20402;-49
2023/03/31 01:00:51;;;;;;;1.50;1.05;;;21.50;74.00;;;;;;6398758;27;20056;-52
2023/03/31 01:03:53;;;;;;;1.52;0.70;;;21.70;74.00;;;;;;6398313;27;20055;-49
2023/03/31 01:07:03;;;;;;;2.35;1.13;;;21.50;74.20;;;;;;6398536;27;20046;-43
2023/03/31 01:10:05;;;;;;;2.92;1.30;;;21.50;74.00;;;;;;6380565;27;20042;-43
2023/03/31 01:13:09;;;;;;;2.83;1.27;;;21.60;73.70;;;;;;6398314;27;20039;-42
2023/03/31 01:16:10;;;;;;;2.17;1.23;;;21.20;73.80;;;;;;6398165;27;20046;-42
2023/03/31 01:19:19;;;;;;;2.13;0.93;;;21.30;74.00;;;;;;6398582;27;20062;-43
2023/03/31 01:22:45;;;;;;;2.10;1.02;;;21.50;73.40;;;;;;6378499;22;20062;-58
2023/03/31 01:26:15;;;;;;;2.00;1.10;;;21.60;74.10;;;;;;6347342;28;20035;-58
2023/03/31 01:29:40;;;;;;;2.22;1.17;;;21.50;74.30;;;;;;6347416;28;20048;-58
2023/03/31 01:33:07;;;;;;;1.52;0.80;;;21.50;74.30;;;;;;6347162;28;20044;-60
2023/03/31 01:36:35;;;;;;;2.13;0.95;;;21.50;74.40;;;;;;6347190;28;20036;-58
2023/03/31 01:39:57;;;;;;;2.45;0.95;;;21.50;74.50;;;;;;6347264;28;20548;-58
2023/03/31 01:43:04;;;;;;;2.00;1.15;;;21.50;74.50;;;;;;6347054;28;20047;-58
2023/03/31 01:46:11;;;;;;;2.40;1.10;;;21.40;74.20;;;;;;6347543;28;20052;-58
2023/03/31 01:49:20;;;;;;;2.13;1.08;;;21.40;74.20;;;;;;6347060;28;20047;-59
2023/03/31 01:52:28;;;;;;;1.92;1.02;;;21.40;74.20;;;;;;6328632;28;20043;-59
2023/03/31 01:55:35;;;;;;;2.33;1.15;;;21.40;74.10;;;;;;6346698;28;20047;-59
2023/03/31 01:58:40;;;;;;;2.05;0.90;;;21.40;73.90;;;;;;6329127;28;20069;-59
2023/03/31 02:01:49;;;;;;;2.80;0.88;;;21.70;73.90;;;;;;6329097;28;20533;-59
2023/03/31 02:04:55;;;;;;;1.65;0.90;;;21.50;73.70;;;;;;6346602;28;20048;-59
2023/03/31 02:08:03;;;;;;;1.92;0.77;;;21.40;73.70;;;;;;6329001;28;20089;-58
2023/03/31 02:11:05;;;;;;;1.85;0.90;;;21.40;73.70;;;;;;6329337;28;20043;-59
2023/03/31 02:14:11;;;;;;;1.70;0.77;;;21.40;73.80;;;;;;6346626;28;20127;-58
2023/03/31 02:17:18;;;;;;;2.60;1.00;;;21.30;73.50;;;;;;6346403;28;20067;-59
2023/03/31 02:20:22;;;;;;;1.70;0.70;;;21.60;73.80;;;;;;6328797;28;20046;-59
2023/03/31 02:23:30;;;;;;;2.15;1.08;;;21.30;73.70;;;;;;6346903;28;20047;-59
2023/03/31 02:26:38;;;;;;;1.80;1.15;;;21.40;73.60;;;;;;6350564;28;20044;-59
2023/03/31 02:29:40;;;;;;;1.33;0.50;;;21.40;73.80;;;;;;6333373;28;20508;-59
2023/03/31 02:32:45;;;;;;;1.63;0.70;;;21.30;74.00;;;;;;6350948;28;20075;-59
2023/03/31 02:35:47;;;;;;;1.67;0.80;;;21.30;73.50;;;;;;6350637;28;20080;-59
2023/03/31 02:38:53;;;;;;;1.88;0.85;;;21.30;73.60;;;;;;6350862;28;20059;-59
2023/03/31 02:41:56;;;;;;;1.83;0.82;;;21.40;73.30;;;;;;6350950;28;20523;-59
2023/03/31 02:45:02;;;;;;;1.67;0.90;;;21.30;73.20;;;;;;6350367;28;20046;-59
2023/03/31 02:48:06;;;;;;;2.00;1.00;;;21.40;72.90;;;;;;6315702;28;20044;-59
2023/03/31 02:51:36;;;;;;;1.35;0.70;;;21.40;72.70;;;;;;6350205;28;20071;-59
2023/03/31 02:55:07;;;;;;;1.80;0.68;;;21.40;72.30;;;;;;6350190;28;20040;-59
2023/03/31 02:58:22;;;;;;;1.35;0.63;;;21.50;72.30;;;;;;6321668;28;20124;-59
2023/03/31 03:01:41;;;;;;;2.13;0.82;;;21.30;72.10;;;;;;6349949;28;20051;-59
2023/03/31 03:05:00;;;;;;;2.38;1.02;;;21.20;71.90;;;;;;6350125;28;20043;-58
2023/03/31 03:08:16;;;;;;;1.38;0.80;;;21.20;71.90;;;;;;6350430;28;20043;-58
2023/03/31 03:11:20;;;;;;;1.10;0.57;;;;;;;;;;6332146;28;20092;-59
2023/03/31 03:14:31;;;;;;;0.98;0.60;;;21.30;68.90;;;;;;6349987;28;20040;-59
2023/03/31 03:17:35;;;;;;;0.93;0.60;;;21.30;71.60;;;;;;6350206;28;20543;-59
2023/03/31 03:20:38;;;;;;;1.08;0.60;;;21.30;71.50;;;;;;6349328;28;20126;-59
2023/03/31 03:23:39;;;;;;;1.30;0.60;;;21.30;71.50;;;;;;6349900;28;20036;-58
2023/03/31 03:26:40;;;;;;;1.30;0.60;;;21.30;71.60;;;;;;6349641;28;20126;-59
2023/03/31 03:29:42;;;;;;;1.50;0.52;;;21.20;71.50;;;;;;6349703;28;20518;-58
2023/03/31 03:32:45;;;;;;;1.40;0.77;;;21.30;71.30;;;;;;6349942;28;20069;-59
2023/03/31 03:35:46;;;;;;;2.47;0.80;;;21.30;71.40;;;;;;6349183;28;20051;-59
2023/03/31 03:38:48;;;;;;;;;;;21.20;71.10;;;;;;6349644;28;20039;-59
2023/03/31 03:41:49;;;;;;;0.95;0.40;;;21.20;71.70;;;;;;6349779;28;20295;-59
2023/03/31 03:44:51;;;;;;;;;;;21.20;71.60;;;;;;6349512;28;20043;-59
2023/03/31 03:47:52;;;;;;;;;;;21.10;71.90;;;;;;6349593;28;20016;-59
2023/03/31 03:50:54;;;;;;;2.00;0.40;;;21.20;72.20;;;;;;6349415;28;20298;-57
2023/03/31 03:53:55;;;;;;;1.33;0.50;;;21.20;71.80;;;;;;6349409;28;20104;-59
2023/03/31 03:56:57;;;;;;;1.40;0.50;;;21.30;71.60;;;;;;6349240;28;20036;-59
2023/03/31 03:59:59;;;;;;;1.83;0.70;;;21.20;71.40;;;;;;6349714;28;20050;-59
2023/03/31 04:03:00;;;;;;;1.80;0.88;;;21.20;71.40;;;;;;6349544;28;20047;-59
2023/03/31 04:06:02;;;;;;;;;;;21.40;71.50;;;;;;6349801;28;20511;-59
2023/03/31 04:09:04;;;;;;;1.58;0.70;;;21.20;71.90;;;;;;6297028;28;20006;-59
2023/03/31 04:12:05;;;;;;;2.38;1.05;;;21.30;71.20;;;;;;6349289;28;20043;-59
2023/03/31 04:15:11;;;;;;;1.90;0.80;;;21.10;71.40;;;;;;6349271;28;20070;-59
2023/03/31 04:18:17;;;;;;;2.75;1.35;;;21.20;71.10;;;;;;6350017;28;20043;-59
2023/03/31 04:21:23;;;;;;;2.70;0.95;;;21.30;71.20;;;;;;6349707;28;20044;-59
2023/03/31 04:24:29;;;;;;;3.35;1.10;;;21.50;71.40;;;;;;6349144;28;20066;-59
2023/03/31 04:27:32;;;;;;;2.83;1.10;;;21.10;70.90;;;;;;6349753;28;20093;-59
2023/03/31 04:30:38;;;;;;;2.35;1.17;;;21.20;71.40;;;;;;6349146;28;20055;-59
2023/03/31 04:33:39;;;;;;;2.67;1.10;;;21.10;71.40;;;;;;6348991;28;20051;-59
2023/03/31 04:36:45;;;;;;;2.05;0.80;;;21.20;71.50;;;;;;6348740;28;20044;-59
2023/03/31 04:39:49;;;;;;;3.17;1.15;;;21.10;71.30;;;;;;6314895;28;20043;-59
2023/03/31 04:42:51;;;;;;;1.98;0.93;;;21.10;71.50;;;;;;6348568;28;20047;-59
2023/03/31 04:45:53;;;;;;;1.65;0.50;;;21.10;71.50;;;;;;6348383;28;20051;-59
2023/03/31 04:48:57;;;;;;;1.88;0.68;;;21.30;71.90;;;;;;6348070;28;20057;-59
2023/03/31 04:52:02;;;;;;;1.70;0.98;;;21.10;71.70;;;;;;6349461;28;20136;-59
2023/03/31 04:55:06;;;;;;;1.80;0.80;;;21.00;71.70;;;;;;6348176;28;20524;-59
2023/03/31 04:58:08;;;;;;;1.33;0.65;;;21.20;71.80;;;;;;6348963;28;20130;-59
2023/03/31 05:01:12;;;;;;;1.25;0.70;;;21.10;71.80;;;;;;6348782;28;20564;-59
2023/03/31 05:04:14;;;;;;;1.95;0.70;;;21.50;71.90;;;;;;6330586;28;20134;-59
2023/03/31 05:07:16;;;;;;;1.27;0.68;;;21.40;71.80;;;;;;6348977;28;20035;-59
2023/03/31 05:10:18;;;;;;;1.30;0.60;;;21.10;71.70;;;;;;6348598;28;20063;-59
2023/03/31 05:13:19;;;;;;;1.25;0.50;;;21.20;71.20;;;;;;6348356;28;20399;-59
2023/03/31 05:16:21;;;;;;;;;;;21.20;71.90;;;;;;6348926;28;20403;-59
2023/03/31 05:19:25;;;;;;;1.35;0.60;;;21.10;72.30;;;;;;6347524;28;19959;-59
2023/03/31 05:22:27;;;;;;;1.65;0.70;;;21.10;71.80;;;;;;6348442;28;20402;-59
2023/03/31 05:25:31;;;;;;;1.42;0.60;;;21.10;72.20;;;;;;6348160;28;20036;-59
2023/03/31 05:28:33;;;;;;;1.38;0.68;;;21.10;72.00;;;;;;6347599;28;20549;-59
2023/03/31 05:31:35;;;;;;;1.23;0.52;;;21.10;72.20;;;;;;6347951;28;20384;-59
2023/03/31 05:34:37;;;;;;;1.38;0.50;;;21.40;72.40;;;;;;6347582;28;20047;-59
2023/03/31 05:37:40;;;;;;;1.77;0.65;;;21.20;72.40;;;;;;6347273;28;20063;-59
2023/03/31 05:40:43;;;;;;;1.23;0.50;;;21.10;72.50;;;;;;6347844;28;20047;-59
2023/03/31 05:43:47;;;;;;;1.52;0.68;;;21.00;72.60;;;;;;6347772;28;20039;-59
2023/03/31 05:46:49;;;;;;;1.20;0.60;;;21.20;72.80;;;;;;6347323;28;20043;-59
2023/03/31 05:49:54;;;;;;;1.27;0.60;;;21.10;73.10;;;;;;6347891;28;20134;-59
2023/03/31 05:52:58;;;;;;;1.15;0.50;;;21.60;69.80;;;;;;6347233;28;20039;-59
2023/03/31 05:56:01;;;;;;;1.38;0.60;;;21.20;73.20;;;;;;6346954;28;20071;-59
2023/03/31 05:59:02;;;;;;;1.45;0.70;;;;;;;;;;6313457;28;20160;-59
2023/03/31 06:02:07;;;;;;;1.02;0.50;;;21.10;69.30;;;;;;6351474;28;20066;-58
2023/03/31 06:05:09;;;;;;;1.45;0.70;;;21.20;73.30;;;;;;6333361;28;20492;-59
2023/03/31 06:08:11;;;;;;;1.08;0.50;;;21.20;73.50;;;;;;6350927;28;20051;-58
2023/03/31 06:11:15;;;;;;;1.35;0.50;;;21.20;73.20;;;;;;6350816;28;20043;-58
2023/03/31 06:14:17;;;;;;;0.60;0.30;;;21.20;72.70;;;;;;6332992;28;20044;-58
2023/03/31 06:17:19;;;;;;;0.85;0.55;;;21.10;73.20;;;;;;6316106;28;20403;-58
2023/03/31 06:20:20;;;;;;;1.48;0.75;;;20.70;73.10;;;;;;6350679;28;20044;-58
2023/03/31 06:23:30;;;;;;;1.33;0.70;;;21.20;73.00;;;;;;6350437;28;20078;-59
2023/03/31 06:26:31;;;;;;;1.27;0.52;;;21.20;73.30;;;;;;6332648;28;20042;-58
2023/03/31 06:29:39;;;;;;;1.60;0.88;;;21.10;73.00;;;;;;6350343;28;20131;-59
2023/03/31 06:32:41;;;;;;;0.95;0.50;;;21.00;73.20;;;;;;6350537;28;20036;-58
2023/03/31 06:35:44;;;;;;;1.73;0.75;;;21.40;73.40;;;;;;6350589;28;20067;-58
2023/03/31 06:38:46;;;;;;;1.10;0.63;;;21.10;73.50;;;;;;6350905;28;20046;-58
2023/03/31 06:41:49;;;;;;;0.82;0.52;;;21.00;73.30;;;;;;6332290;28;20067;-58
2023/03/31 06:45:00;;;;;;;1.13;0.50;;;21.10;73.30;;;;;;6349378;28;20050;-59
2023/03/31 06:48:02;;;;;;;1.10;0.70;;;21.10;73.20;;;;;;6349827;28;20475;-57
2023/03/31 06:51:06;;;;;;;1.38;0.70;;;21.10;73.30;;;;;;6350046;28;20047;-59
2023/03/31 06:54:07;;;;;;;2.20;0.90;;;21.10;73.10;;;;;;6331509;28;20109;-59
2023/03/31 06:57:09;;;;;;;0.90;0.60;;;21.20;73.30;;;;;;6349418;28;20036;-53
2023/03/31 07:00:12;;;;;;;1.58;0.50;;;21.20;73.00;;;;;;6349827;28;20051;-55
2023/03/31 07:03:17;;;;;;;0.90;0.45;;;21.40;73.20;;;;;;6349121;28;20054;-55
2023/03/31 07:06:19;;;;;;;1.15;0.70;;;21.20;72.60;;;;;;6349633;28;20079;-54
2023/03/31 07:09:22;;;;;;;0.93;0.60;;;21.20;74.10;;;;;;6330238;28;20059;-52
2023/03/31 07:12:24;;;;;;;1.42;0.63;;;21.20;73.20;;;;;;6348671;28;20048;-55
2023/03/31 07:15:27;;;;;;;1.23;0.70;;;21.20;73.50;;;;;;6349190;28;20502;-56
2023/03/31 07:18:31;;;;;;;1.27;0.65;;;21.20;73.50;;;;;;6331150;28;20040;-55
2023/03/31 07:21:32;;;;;;;0.80;0.50;;;21.30;73.70;;;;;;6348903;28;20063;-56
2023/03/31 07:24:34;;;;;;;;;;;21.20;73.60;;;;;;6349555;28;20535;-57
2023/03/31 07:27:38;;;;;;;1.27;0.57;;;21.70;74.10;;;;;;6349327;28;20378;-57
2023/03/31 07:30:40;;;;;;;2.55;0.60;;;21.30;73.60;;;;;;6349011;28;20047;-54
2023/03/31 07:33:42;;;;;;;1.45;0.70;;;21.40;73.70;;;;;;6348894;28;20049;-50
2023/03/31 07:36:44;;;;;;;0.82;0.50;;;21.30;73.40;;;;;;6348732;28;20043;-47
2023/03/31 07:39:48;;;;;;;1.10;0.50;;;21.30;74.00;;;;;;6352248;28;20048;-57
2023/03/31 07:42:51;;;;;;;0.82;0.30;;;21.40;73.40;;;;;;6331627;28;20510;-55
2023/03/31 07:45:52;;;;;;;1.10;0.60;;;21.50;73.90;;;;;;6330274;28;20051;-52
2023/03/31 07:48:55;;;;;;;;;;;21.40;73.90;;;;;;6348755;28;20057;-53
2023/03/31 07:51:56;;;;;;;0.60;0.43;;;21.80;74.20;;;;;;6330441;28;19961;-54
2023/03/31 07:54:58;;;;;;;0.88;0.40;;;21.20;73.70;;;;;;6348770;28;20403;-54
2023/03/31 07:57:59;;;;;;;1.55;0.73;;;21.30;73.90;;;;;;6348473;28;20040;-53
2023/03/31 08:01:01;;;;;;;1.13;0.60;;;21.40;73.50;;;;;;6348630;28;20036;-54
2023/03/31 08:04:07;;;;;;;1.17;0.50;;;21.30;73.40;;;;;;6348328;28;20070;-54
2023/03/31 08:07:14;;;;;;;0.80;0.52;;;21.70;70.10;;;;;;6347871;28;20040;-54
2023/03/31 08:10:17;;;;;;;1.85;0.50;;;21.20;73.30;;;;;;6329987;28;20044;-55
2023/03/31 08:13:21;;;;;;;1.60;0.50;;;21.40;73.30;;;;;;6330133;28;20483;-51
2023/03/31 08:16:23;;;;;;;1.33;0.63;;;21.30;73.10;;;;;;6347904;28;20487;-54
2023/03/31 08:19:27;;;;;;;0.77;0.30;;;21.40;72.90;;;;;;6347702;28;20048;-50
2023/03/31 08:22:28;;;;;;;1.05;0.50;;;21.50;73.20;;;;;;6347117;28;20039;-53
2023/03/31 08:25:30;;;;;;;0.90;0.50;;;21.60;73.00;;;;;;6347603;28;20086;-51
2023/03/31 08:28:32;;;;;;;1.15;0.68;;;21.40;72.90;;;;;;6347816;28;20070;-55
2023/03/31 08:31:33;;;;;;;1.10;0.50;;;21.30;72.40;;;;;;6347855;28;20032;-53
2023/03/31 08:34:36;;;;;;;;;;;21.40;72.70;;;;;;6348326;28;20043;-53
2023/03/31 08:37:38;;;;;;;1.50;0.70;;;21.50;73.00;;;;;;6348227;28;20260;-55
2023/03/31 08:40:41;;;;;;;1.27;0.60;;;21.60;72.70;;;;;;6347600;28;20067;-54
2023/03/31 08:43:45;;;;;;;1.70;0.50;;;21.70;72.30;;;;;;6347974;28;20100;-53
2023/03/31 08:46:51;;;;;;;1.30;0.50;;;21.50;72.00;;;;;;6347830;28;20498;-54
2023/03/31 08:49:57;;;;;;;1.33;0.50;;;21.60;71.40;;;;;;6330025;28;20040;-54
2023/03/31 08:53:05;;;;;;;1.38;0.60;;;21.60;71.80;;;;;;6329727;28;20406;-53
2023/03/31 08:56:14;;;;;;;1.63;0.52;;;21.90;71.80;;;;;;6347192;28;20044;-52
2023/03/31 08:59:23;;;;;;;1.55;0.50;;;21.40;71.40;;;;;;6329154;28;20078;-53
2023/03/31 09:02:33;;;;;;;0.70;0.50;;;21.60;71.40;;;;;;6346970;28;20043;-53
2023/03/31 09:05:44;;;;;;;1.17;0.40;;;21.80;71.60;;;;;;6329569;28;20073;-54
2023/03/31 09:09:07;;;;;;;1.10;0.50;;;21.50;71.30;;;;;;6331804;28;20036;-54
2023/03/31 09:12:15;;;;;;;1.30;0.52;;;21.60;71.20;;;;;;6347114;28;20051;-51
2023/03/31 09:15:24;;;;;;;1.52;0.80;;;21.60;71.20;;;;;;6329423;28;20534;-54
2023/03/31 09:18:30;;;;;;;1.10;0.50;;;21.60;71.30;;;;;;6328570;28;20051;-52
2023/03/31 09:21:38;;;;;;;0.82;0.75;;;21.60;71.30;;;;;;6346929;28;20495;-52
2023/03/31 09:24:48;;;;;;;2.38;0.50;;;21.50;71.30;;;;;;6347248;28;20035;-55
2023/03/31 09:27:51;;;;;;;1.27;0.60;;;21.70;71.40;;;;;;6347384;28;20116;-54
2023/03/31 09:30:54;;;;;;;1.45;0.50;;;21.70;71.60;;;;;;6329032;28;20040;-54
2023/03/31 09:34:00;;;;;;;1.30;0.70;;;21.60;71.60;;;;;;6348750;28;20050;-50
2023/03/31 09:37:03;;;;;;;1.63;0.80;;;21.60;71.40;;;;;;6333317;28;20040;-53
2023/03/31 09:40:06;;;;;;;1.38;0.70;;;21.70;71.70;;;;;;6351182;28;20055;-53
2023/03/31 09:43:17;;;;;;;1.80;0.68;;;21.70;71.60;;;;;;6351163;28;20416;-52
2023/03/31 09:46:28;;;;;;;1.27;0.60;;;21.60;71.50;;;;;;6351023;28;20044;-52
2023/03/31 09:49:33;;;;;;;1.85;0.70;;;21.90;71.60;;;;;;6333828;28;20043;-53
2023/03/31 09:52:39;;;;;;;1.73;0.50;;;21.60;71.40;;;;;;6351101;28;20046;-53
2023/03/31 09:55:46;;;;;;;1.52;0.60;;;21.80;71.50;;;;;;6315847;28;20135;-51
2023/03/31 09:58:47;;;;;;;1.13;0.70;;;21.70;71.60;;;;;;6350275;28;20043;-52
2023/03/31 10:01:50;;;;;;;;;;;21.70;71.80;;;;;;6351367;28;20055;-51
2023/03/31 10:04:52;;;;;;;1.38;0.70;;;21.70;72.10;;;;;;6350591;28;19926;-51
2023/03/31 10:08:11;;;;;;;;;;;21.70;72.10;;;;;;6350775;28;20563;-52
2023/03/31 10:11:12;;;;;;;0.80;0.38;;;21.50;72.10;;;;;;6350516;28;19919;-52
2023/03/31 10:14:15;;;;;;;1.65;0.45;;;;;;;;;;6332607;28;20047;-50
2023/03/31 10:17:21;;;;;;;1.13;0.47;;;21.70;67.90;;;;;;6350317;28;20062;-54
2023/03/31 10:20:32;;;;;;;1.42;0.50;;;21.70;67.90;;;;;;6332870;28;20036;-54
2023/03/31 10:23:35;;;;;;;1.33;0.50;;;21.60;71.60;;;;;;6315532;28;20044;-51
2023/03/31 10:26:39;;;;;;;0.85;0.43;;;21.50;71.30;;;;;;6332116;28;20050;-50
2023/03/31 10:29:41;;;;;;;0.57;0.38;;;21.70;71.10;;;;;;6350439;28;20047;-55
2023/03/31 10:32:46;;;;;;;0.85;0.30;;;21.60;71.00;;;;;;6349934;28;20063;-51
2023/03/31 10:35:56;;;;;;;0.85;0.40;;;21.80;71.00;;;;;;6349797;28;20048;-51
2023/03/31 10:38:58;;;;;;;0.90;0.40;;;21.80;70.80;;;;;;6350161;28;20048;-52
2023/03/31 10:42:03;;;;;;;0.50;0.40;;;21.70;70.60;;;;;;6349915;28;20063;-54
2023/03/31 10:45:23;;;;;;;2.40;1.10;;;21.70;70.80;;;;;;6349110;28;20043;-52
2023/03/31 10:48:41;;;;;;;1.77;0.75;;;21.70;70.90;;;;;;6333685;28;20051;-53
2023/03/31 10:51:49;;;;;;;1.73;0.80;;;21.80;71.40;;;;;;6331598;28;20073;-53
2023/03/31 10:54:56;;;;;;;2.63;0.65;;;21.80;70.90;;;;;;6349285;28;20407;-50
2023/03/31 10:58:03;;;;;;;1.23;0.70;;;21.80;70.70;;;;;;6332024;28;20064;-53
2023/03/31 11:01:20;;;;;;;1.27;0.60;;;21.70;70.70;;;;;;6349457;28;20414;-54
2023/03/31 11:04:34;;;;;;;1.17;0.60;;;21.80;70.80;;;;;;6349453;28;20392;-54
2023/03/31 11:07:49;;;;;;;1.02;0.45;;;22.20;71.10;;;;;;6349228;28;20050;-53
2023/03/31 11:11:04;;;;;;;0.63;0.32;;;21.80;71.10;;;;;;6349202;28;20040;-52
2023/03/31 11:14:13;;;;;;;0.80;0.50;;;21.80;71.20;;;;;;6349714;28;20043;-52
2023/03/31 11:17:28;;;;;;;2.45;0.50;;;21.80;70.80;;;;;;6349066;28;20051;-50
2023/03/31 11:20:37;;;;;;;0.85;0.40;;;21.80;71.40;;;;;;6348979;28;20379;-53
2023/03/31 11:23:41;;;;;;;1.10;0.43;;;21.80;71.60;;;;;;6330936;28;20047;-53
2023/03/31 11:26:50;;;;;;;0.93;0.40;;;21.80;71.80;;;;;;6331035;28;20039;-52
2023/03/31 11:29:58;;;;;;;0.60;0.30;;;21.80;71.70;;;;;;6348944;28;20100;-53
2023/03/31 11:33:16;;;;;;;0.77;0.40;;;21.90;71.70;;;;;;6348722;28;20093;-51
2023/03/31 11:36:35;;;;;;;0.65;0.40;;;22.00;71.70;;;;;;6332549;28;20075;-52
2023/03/31 11:39:46;;;;;;;1.23;0.50;;;21.90;71.60;;;;;;6349355;28;20047;-54
2023/03/31 11:43:05;;;;;;;0.90;0.40;;;21.80;71.40;;;;;;6348506;28;20044;-51
2023/03/31 11:46:11;;;;;;;0.60;0.30;;;21.70;71.20;;;;;;6348669;28;20380;-56
2023/03/31 11:49:18;;;;;;;1.38;0.40;;;22.20;71.30;;;;;;6348966;28;20047;-53
2023/03/31 11:52:26;;;;;;;0.57;0.30;;;21.90;71.10;;;;;;6348442;28;20074;-52
2023/03/31 11:55:30;;;;;;;0.50;0.32;;;21.90;71.30;;;;;;6329924;28;20086;-51
2023/03/31 11:58:36;;;;;;;0.55;0.30;;;21.70;71.20;;;;;;6347327;28;20048;-53
2023/03/31 12:01:45;;;;;;;0.57;0.30;;;21.80;71.20;;;;;;6347991;28;20070;-53
2023/03/31 12:04:51;;;;;;;0.45;0.20;;;21.80;71.40;;;;;;6347968;28;20376;-52
2023/03/31 12:08:00;;;;;;;1.00;0.22;;;21.70;71.40;;;;;;6348499;28;20070;-53
2023/03/31 12:11:06;;;;;;;0.50;0.28;;;21.90;71.60;;;;;;6348063;28;20039;-47
2023/03/31 12:14:21;;;;;;;0.90;0.40;;;21.90;71.80;;;;;;6330838;28;20044;-50
2023/03/31 12:17:27;;;;;;;0.57;0.38;;;21.70;71.50;;;;;;6347936;28;20062;-53
2023/03/31 12:20:36;;;;;;;0.60;0.40;;;21.80;71.70;;;;;;6330014;28;20201;-51
2023/03/31 12:23:43;;;;;;;0.50;0.30;;;21.80;71.80;;;;;;6347747;28;20047;-52
2023/03/31 12:26:56;;;;;;;0.88;0.30;;;22.00;71.80;;;;;;6347838;28;20047;-52
2023/03/31 12:30:01;;;;;;;0.88;0.45;;;21.80;71.80;;;;;;6347739;28;20520;-49
2023/03/31 12:33:11;;;;;;;1.58;0.40;;;21.80;72.10;;;;;;6348033;28;20047;-50
2023/03/31 12:36:27;;;;;;;0.75;0.43;;;21.80;72.20;;;;;;6347296;28;20134;-53
2023/03/31 12:39:42;;;;;;;0.52;0.40;;;21.90;72.40;;;;;;6347503;28;20130;-53
2023/03/31 12:42:59;;;;;;;0.70;0.57;;;21.80;72.40;;;;;;6347227;28;20043;-50
2023/03/31 12:46:16;;;;;;;0.55;0.40;;;21.80;72.40;;;;;;6347229;28;20047;-49
2023/03/31 12:49:33;;;;;;;0.30;0.22;;;21.70;72.30;;;;;;6347510;28;20118;-52
2023/03/31 12:52:45;;;;;;;0.85;0.35;;;21.90;72.50;;;;;;6347433;28;20047;-51
2023/03/31 12:55:48;;;;;;;0.68;0.30;;;21.80;72.70;;;;;;6311255;28;20147;-52
2023/03/31 12:58:49;;;;;;;0.45;0.25;;;21.40;72.60;;;;;;6312007;28;20528;-52
2023/03/31 13:01:59;;;;;;;;;;;21.80;73.10;;;;;;6347915;28;20040;-51
2023/03/31 13:05:46;;;;;;;0.50;0.20;;;22.30;73.70;;;;;;6347384;28;20014;-51
2023/03/31 13:08:54;;;;;;;0.43;0.30;;;21.70;73.20;;;;;;6333473;28;20047;-51
2023/03/31 13:11:56;;;;;;;0.70;0.40;;;21.80;73.20;;;;;;6312722;28;20391;-51
2023/03/31 13:14:58;;;;;;;0.70;0.60;;;22.10;73.50;;;;;;6346639;28;20043;-52
2023/03/31 13:18:02;;;;;;;0.70;0.30;;;21.60;73.30;;;;;;6347047;28;20118;-52
2023/03/31 13:21:08;;;;;;;0.73;0.30;;;21.90;73.30;;;;;;6295202;28;21126;-53
2023/03/31 13:24:12;;;;;;;0.30;0.20;;;21.90;73.20;;;;;;6296838;28;20476;-48
2023/03/31 13:27:30;;;;;;;0.50;0.30;;;22.00;73.00;;;;;;6296643;28;20403;-51
2023/03/31 13:30:48;;;;;;;0.40;0.30;;;21.70;72.70;;;;;;6296585;28;20419;-50
2023/03/31 13:33:56;;;;;;;0.50;0.40;;;22.30;72.70;;;;;;6280943;28;20052;-53
2023/03/31 13:37:13;;;;;;;0.57;0.30;;;22.40;72.50;;;;;;6297050;28;20464;-51
2023/03/31 13:40:27;;;;;;;0.90;0.50;;;22.00;72.00;;;;;;6295924;28;20048;-52
2023/03/31 13:43:52;;;;;;;0.55;0.20;;;22.00;71.80;;;;;;6295784;28;20045;-48
2023/03/31 13:47:22;;;;;;;0.80;0.40;;;22.00;71.50;;;;;;6296005;28;20052;-49
2023/03/31 13:50:45;;;;;;;0.88;0.30;;;21.90;71.50;;;;;;6295818;28;20090;-48
2023/03/31 13:54:10;;;;;;;0.70;0.30;;;21.90;71.20;;;;;;6279053;28;20044;-51
2023/03/31 13:57:32;;;;;;;0.65;0.30;;;22.10;71.20;;;;;;6296407;28;20045;-52
2023/03/31 14:00:46;;;;;;;0.57;0.30;;;21.90;70.90;;;;;;6278063;28;20052;-52
2023/03/31 14:03:59;;;;;;;0.25;0.20;;;21.90;70.70;;;;;;6295855;28;20045;-51
2023/03/31 14:07:07;;;;;;;0.32;0.20;;;22.00;70.70;;;;;;6296552;28;20044;-52
2023/03/31 14:10:22;;;;;;;0.50;0.30;;;22.00;70.70;;;;;;6278884;28;20036;-51
2023/03/31 14:13:24;;;;;;;0.77;0.40;;;21.90;70.50;;;;;;6295673;28;20037;-50
2023/03/31 14:16:26;;;;;;;0.55;0.30;;;22.00;70.90;;;;;;6296367;28;20071;-52
2023/03/31 14:19:51;;;;;;;0.52;0.30;;;21.90;70.60;;;;;;6295643;28;20085;-49
2023/03/31 14:23:05;;;;;;;0.60;0.30;;;21.90;70.60;;;;;;6285724;28;20467;-52
2023/03/31 14:26:15;;;;;;;0.68;0.38;;;22.10;70.80;;;;;;6300142;28;20068;-53
2023/03/31 14:29:22;;;;;;;0.70;0.50;;;21.90;70.70;;;;;;6299781;28;20037;-48
2023/03/31 14:32:30;;;;;;;0.38;0.20;;;21.90;70.60;;;;;;6300982;28;20040;-53
2023/03/31 14:35:37;;;;;;;0.38;0.38;;;22.00;70.60;;;;;;6299771;28;20480;-51
2023/03/31 14:38:39;;;;;;;0.22;0.15;;;22.00;70.40;;;;;;6299575;28;20037;-53
2023/03/31 14:41:43;;;;;;;;;;;22.00;70.50;;;;;;6300429;28;20047;-50
2023/03/31 14:44:46;;;;;;;0.70;0.40;;;22.00;70.70;;;;;;6299737;28;19963;-52
2023/03/31 14:47:55;;;;;;;0.63;0.40;;;21.90;70.40;;;;;;6282314;28;20147;-53
2023/03/31 14:50:58;;;;;;;0.75;0.30;;;22.00;69.90;;;;;;6299936;28;20380;-50
2023/03/31 14:54:00;;;;;;;0.50;0.30;;;22.00;69.80;;;;;;6281802;28;20045;-53
2023/03/31 14:57:03;;;;;;;1.02;0.43;;;22.00;69.80;;;;;;6281678;28;20079;-53
2023/03/31 15:00:09;;;;;;;0.70;0.40;;;22.10;69.60;;;;;;6299147;28;20052;-52
2023/03/31 15:03:14;;;;;;;1.08;0.50;;;22.30;69.70;;;;;;6299444;28;20048;-52
2023/03/31 15:06:16;;;;;;;1.08;0.50;;;22.10;69.50;;;;;;6299008;28;20060;-51
2023/03/31 15:09:21;;;;;;;0.47;0.30;;;22.10;69.60;;;;;;6299205;28;20405;-50
2023/03/31 15:12:24;;;;;;;0.70;0.40;;;22.10;69.50;;;;;;6299222;28;20079;-53
2023/03/31 15:15:26;;;;;;;0.82;0.52;;;22.00;69.40;;;;;;6298931;28;20043;-52
2023/03/31 15:18:28;;;;;;;1.05;0.38;;;22.00;69.40;;;;;;6299411;28;20420;-51
2023/03/31 15:21:33;;;;;;;0.47;0.25;;;22.00;69.20;;;;;;6281102;28;20041;-51
2023/03/31 15:24:36;;;;;;;0.50;0.30;;;22.00;69.10;;;;;;6298853;28;20520;-50
2023/03/31 15:27:44;;;;;;;1.40;0.50;;;22.10;69.00;;;;;;6298867;28;20381;-53
2023/03/31 15:30:48;;;;;;;0.90;0.40;;;21.90;68.90;;;;;;6298600;28;20057;-52
2023/03/31 15:33:53;;;;;;;0.70;0.40;;;22.00;68.70;;;;;;6281847;28;20485;-52
2023/03/31 15:36:56;;;;;;;0.43;0.20;;;22.00;69.00;;;;;;6280048;28;20063;-53
2023/03/31 15:40:00;;;;;;;0.65;0.32;;;22.00;69.00;;;;;;6298816;28;20114;-51
2023/03/31 15:43:07;;;;;;;0.52;0.22;;;22.30;68.90;;;;;;6298530;28;20067;-52
2023/03/31 15:46:49;;;;;;;0.55;0.30;;;21.90;68.70;;;;;;6298538;28;20407;-50
2023/03/31 15:49:53;;;;;;;0.50;0.40;;;22.00;68.70;;;;;;6280396;28;20044;-51
2023/03/31 15:52:57;;;;;;;0.40;0.22;;;22.00;68.50;;;;;;6280955;28;20048;-53
2023/03/31 15:55:59;;;;;;;0.55;0.30;;;22.00;68.50;;;;;;6280757;28;20071;-49
2023/03/31 15:59:03;;;;;;;0.80;0.52;;;22.00;68.20;;;;;;6281099;28;20492;-49
2023/03/31 16:02:07;;;;;;;0.28;0.13;;;22.00;68.10;;;;;;6280536;28;20047;-51
2023/03/31 16:05:28;;;;;;;0.85;0.30;;;22.10;68.60;;;;;;6298322;28;20079;-52
2023/03/31 16:08:39;;;;;;;1.13;0.25;;;22.00;68.40;;;;;;6247353;28;20044;-52
2023/03/31 16:11:44;;;;;;;;;;;22.00;68.40;;;;;;6298724;28;20396;-50
2023/03/31 16:14:51;;;;;;;0.52;0.30;;;22.40;68.90;;;;;;6297900;28;19963;-53
2023/03/31 16:17:56;;;;;;;0.50;0.28;;;22.30;68.80;;;;;;6297955;28;20094;-51